Eureka, California
Current Conditions -  °F | °C
As of 2:10 PM on Saturday 20 Dec 2014 (Local Time) from KACV Reporting Station
Moderate Rain Moderate Rain  
Wind Chill: 54°   Ceiling: 2700
Heat Index: 54°   Visibility: 2.5mi
Dew Point: 52°   Wind: 15mph
Humidity: 93%   Direction: 140°SE
Pressure: 30.02"   Gusts: 20mph
Location:  40.8°N, 124.15°W
Report Text: KACV 202210Z AUTO 14013G17KT 2 1/2SM RA BR OVC027 12/11 A3002 RMK AO2 P0004 T01220111
Loading
Personal Weather Stations






























Interactive Weather Map New forecast layout! Learn more

10-Day Weather Forecast

Advertisements
Track Severe Weather on mobile